sensor_id;sensor_type;location;lat;lon;timestamp;P1;durP1;ratioP1;P2;durP2;ratioP2
8663;SDS011;4369;47.842;13.096;2023-08-17T00:02:19;16.30;;;14.60;;
8663;SDS011;4369;47.842;13.096;2023-08-17T00:04:46;17.73;;;15.83;;
8663;SDS011;4369;47.842;13.096;2023-08-17T00:07:13;17.07;;;15.43;;
8663;SDS011;4369;47.842;13.096;2023-08-17T00:09:39;17.60;;;15.80;;
8663;SDS011;4369;47.842;13.096;2023-08-17T00:12:07;16.70;;;14.87;;
8663;SDS011;4369;47.842;13.096;2023-08-17T00:14:34;17.57;;;14.97;;
8663;SDS011;4369;47.842;13.096;2023-08-17T00:17:02;17.53;;;15.83;;
8663;SDS011;4369;47.842;13.096;2023-08-17T00:19:29;17.37;;;15.53;;
8663;SDS011;4369;47.842;13.096;2023-08-17T00:21:56;16.20;;;14.60;;
8663;SDS011;4369;47.842;13.096;2023-08-17T00:24:23;17.27;;;15.53;;
8663;SDS011;4369;47.842;13.096;2023-08-17T00:26:50;16.30;;;14.70;;
8663;SDS011;4369;47.842;13.096;2023-08-17T00:29:17;17.53;;;15.67;;
8663;SDS011;4369;47.842;13.096;2023-08-17T00:31:44;17.40;;;15.50;;
8663;SDS011;4369;47.842;13.096;2023-08-17T00:34:12;17.23;;;15.43;;
8663;SDS011;4369;47.842;13.096;2023-08-17T00:36:39;17.43;;;15.60;;
8663;SDS011;4369;47.842;13.096;2023-08-17T00:39:06;15.53;;;14.00;;
8663;SDS011;4369;47.842;13.096;2023-08-17T00:41:33;14.97;;;13.67;;
8663;SDS011;4369;47.842;13.096;2023-08-17T00:44:00;16.43;;;14.73;;
8663;SDS011;4369;47.842;13.096;2023-08-17T00:46:27;16.97;;;14.77;;
8663;SDS011;4369;47.842;13.096;2023-08-17T00:48:54;16.53;;;14.93;;
8663;SDS011;4369;47.842;13.096;2023-08-17T00:51:22;17.07;;;15.27;;
8663;SDS011;4369;47.842;13.096;2023-08-17T00:53:50;16.40;;;14.73;;
8663;SDS011;4369;47.842;13.096;2023-08-17T00:56:18;18.77;;;13.87;;
8663;SDS011;4369;47.842;13.096;2023-08-17T00:58:45;16.33;;;14.73;;
8663;SDS011;4369;47.842;13.096;2023-08-17T01:01:12;16.40;;;14.80;;
8663;SDS011;4369;47.842;13.096;2023-08-17T01:03:39;15.50;;;13.90;;
8663;SDS011;4369;47.842;13.096;2023-08-17T01:06:07;15.17;;;13.67;;
8663;SDS011;4369;47.842;13.096;2023-08-17T01:08:35;16.07;;;14.57;;
8663;SDS011;4369;47.842;13.096;2023-08-17T01:11:05;16.83;;;14.73;;
8663;SDS011;4369;47.842;13.096;2023-08-17T01:13:39;15.83;;;14.33;;
8663;SDS011;4369;47.842;13.096;2023-08-17T01:16:14;16.57;;;14.73;;
8663;SDS011;4369;47.842;13.096;2023-08-17T01:18:51;16.43;;;14.87;;
8663;SDS011;4369;47.842;13.096;2023-08-17T01:21:20;15.40;;;14.03;;
8663;SDS011;4369;47.842;13.096;2023-08-17T01:23:51;15.17;;;13.77;;
8663;SDS011;4369;47.842;13.096;2023-08-17T01:26:18;15.90;;;14.13;;
8663;SDS011;4369;47.842;13.096;2023-08-17T01:28:45;17.23;;;15.43;;
8663;SDS011;4369;47.842;13.096;2023-08-17T01:31:14;15.83;;;14.33;;
8663;SDS011;4369;47.842;13.096;2023-08-17T01:33:47;15.57;;;13.97;;
8663;SDS011;4369;47.842;13.096;2023-08-17T01:36:18;15.87;;;14.20;;
8663;SDS011;4369;47.842;13.096;2023-08-17T01:38:48;15.97;;;14.50;;
8663;SDS011;4369;47.842;13.096;2023-08-17T01:41:20;15.90;;;13.93;;
8663;SDS011;4369;47.842;13.096;2023-08-17T01:43:49;15.13;;;13.73;;
8663;SDS011;4369;47.842;13.096;2023-08-17T01:46:17;15.60;;;14.03;;
8663;SDS011;4369;47.842;13.096;2023-08-17T01:48:44;15.37;;;13.87;;
8663;SDS011;4369;47.842;13.096;2023-08-17T01:51:16;16.17;;;14.50;;
8663;SDS011;4369;47.842;13.096;2023-08-17T01:53:44;16.17;;;14.47;;
8663;SDS011;4369;47.842;13.096;2023-08-17T01:56:12;16.13;;;14.47;;
8663;SDS011;4369;47.842;13.096;2023-08-17T01:58:39;16.60;;;14.87;;
8663;SDS011;4369;47.842;13.096;2023-08-17T02:01:06;16.23;;;14.73;;
8663;SDS011;4369;47.842;13.096;2023-08-17T02:03:33;16.83;;;13.93;;
8663;SDS011;4369;47.842;13.096;2023-08-17T02:06:00;19.30;;;14.87;;
8663;SDS011;4369;47.842;13.096;2023-08-17T02:08:27;16.03;;;14.47;;
8663;SDS011;4369;47.842;13.096;2023-08-17T02:10:56;16.00;;;14.40;;
8663;SDS011;4369;47.842;13.096;2023-08-17T02:13:24;16.50;;;14.37;;
8663;SDS011;4369;47.842;13.096;2023-08-17T02:15:52;18.40;;;15.83;;
8663;SDS011;4369;47.842;13.096;2023-08-17T02:18:19;17.93;;;16.10;;
8663;SDS011;4369;47.842;13.096;2023-08-17T02:20:46;18.63;;;15.93;;
8663;SDS011;4369;47.842;13.096;2023-08-17T02:23:13;17.93;;;16.13;;
8663;SDS011;4369;47.842;13.096;2023-08-17T02:25:40;17.67;;;16.07;;
8663;SDS011;4369;47.842;13.096;2023-08-17T02:28:07;16.47;;;14.97;;
8663;SDS011;4369;47.842;13.096;2023-08-17T02:30:35;16.43;;;14.73;;
8663;SDS011;4369;47.842;13.096;2023-08-17T02:33:02;17.73;;;16.03;;
8663;SDS011;4369;47.842;13.096;2023-08-17T02:35:29;16.03;;;14.43;;
8663;SDS011;4369;47.842;13.096;2023-08-17T02:37:56;16.37;;;14.53;;
8663;SDS011;4369;47.842;13.096;2023-08-17T02:40:23;16.30;;;14.60;;
8663;SDS011;4369;47.842;13.096;2023-08-17T02:42:50;16.63;;;14.83;;
8663;SDS011;4369;47.842;13.096;2023-08-17T02:45:17;19.77;;;14.73;;
8663;SDS011;4369;47.842;13.096;2023-08-17T02:47:45;15.57;;;14.17;;
8663;SDS011;4369;47.842;13.096;2023-08-17T02:50:12;15.07;;;13.67;;
8663;SDS011;4369;47.842;13.096;2023-08-17T02:52:39;15.03;;;13.67;;
8663;SDS011;4369;47.842;13.096;2023-08-17T02:55:06;16.90;;;15.03;;
8663;SDS011;4369;47.842;13.096;2023-08-17T02:57:33;16.37;;;14.70;;
8663;SDS011;4369;47.842;13.096;2023-08-17T03:00:00;16.07;;;14.27;;
8663;SDS011;4369;47.842;13.096;2023-08-17T03:02:27;16.30;;;14.73;;
8663;SDS011;4369;47.842;13.096;2023-08-17T03:04:55;16.73;;;15.03;;
8663;SDS011;4369;47.842;13.096;2023-08-17T03:07:22;15.63;;;14.13;;
8663;SDS011;4369;47.842;13.096;2023-08-17T03:09:49;16.67;;;14.67;;
8663;SDS011;4369;47.842;13.096;2023-08-17T03:12:16;15.87;;;14.37;;
8663;SDS011;4369;47.842;13.096;2023-08-17T03:14:43;16.47;;;14.77;;
8663;SDS011;4369;47.842;13.096;2023-08-17T03:17:10;16.40;;;14.77;;
8663;SDS011;4369;47.842;13.096;2023-08-17T03:19:36;15.80;;;14.20;;
8663;SDS011;4369;47.842;13.096;2023-08-17T03:22:05;15.93;;;14.43;;
8663;SDS011;4369;47.842;13.096;2023-08-17T03:24:31;18.00;;;16.27;;
8663;SDS011;4369;47.842;13.096;2023-08-17T03:26:58;17.33;;;14.47;;
8663;SDS011;4369;47.842;13.096;2023-08-17T03:29:25;16.10;;;14.57;;
8663;SDS011;4369;47.842;13.096;2023-08-17T03:31:52;15.40;;;13.90;;
8663;SDS011;4369;47.842;13.096;2023-08-17T03:34:19;15.67;;;14.07;;
8663;SDS011;4369;47.842;13.096;2023-08-17T03:36:46;17.30;;;15.60;;
8663;SDS011;4369;47.842;13.096;2023-08-17T03:39:14;16.73;;;13.80;;
8663;SDS011;4369;47.842;13.096;2023-08-17T03:41:41;15.87;;;14.33;;
8663;SDS011;4369;47.842;13.096;2023-08-17T03:44:08;16.10;;;14.60;;
8663;SDS011;4369;47.842;13.096;2023-08-17T03:46:35;15.63;;;14.23;;
8663;SDS011;4369;47.842;13.096;2023-08-17T03:49:02;16.63;;;14.90;;
8663;SDS011;4369;47.842;13.096;2023-08-17T03:51:29;16.07;;;14.57;;
8663;SDS011;4369;47.842;13.096;2023-08-17T03:53:56;17.00;;;15.30;;
8663;SDS011;4369;47.842;13.096;2023-08-17T03:56:24;16.73;;;14.93;;
8663;SDS011;4369;47.842;13.096;2023-08-17T03:58:52;15.77;;;14.23;;
8663;SDS011;4369;47.842;13.096;2023-08-17T04:01:19;15.37;;;14.00;;
8663;SDS011;4369;47.842;13.096;2023-08-17T04:03:46;15.67;;;14.17;;
8663;SDS011;4369;47.842;13.096;2023-08-17T04:06:13;16.47;;;14.00;;
8663;SDS011;4369;47.842;13.096;2023-08-17T04:08:40;16.00;;;14.17;;
8663;SDS011;4369;47.842;13.096;2023-08-17T04:11:07;16.70;;;15.10;;
8663;SDS011;4369;47.842;13.096;2023-08-17T04:13:35;16.20;;;14.13;;
8663;SDS011;4369;47.842;13.096;2023-08-17T04:16:02;17.00;;;14.47;;
8663;SDS011;4369;47.842;13.096;2023-08-17T04:18:29;16.47;;;14.83;;
8663;SDS011;4369;47.842;13.096;2023-08-17T04:20:56;16.03;;;14.43;;
8663;SDS011;4369;47.842;13.096;2023-08-17T04:23:23;16.50;;;14.73;;
8663;SDS011;4369;47.842;13.096;2023-08-17T04:25:49;18.50;;;15.17;;
8663;SDS011;4369;47.842;13.096;2023-08-17T04:28:16;17.20;;;14.40;;
8663;SDS011;4369;47.842;13.096;2023-08-17T04:30:45;16.03;;;14.37;;
8663;SDS011;4369;47.842;13.096;2023-08-17T04:33:11;16.87;;;14.70;;
8663;SDS011;4369;47.842;13.096;2023-08-17T04:35:39;16.87;;;15.17;;
8663;SDS011;4369;47.842;13.096;2023-08-17T04:38:06;15.63;;;14.03;;
8663;SDS011;4369;47.842;13.096;2023-08-17T04:40:32;16.10;;;14.47;;
8663;SDS011;4369;47.842;13.096;2023-08-17T04:42:59;16.27;;;14.77;;
8663;SDS011;4369;47.842;13.096;2023-08-17T04:45:26;15.83;;;14.23;;
8663;SDS011;4369;47.842;13.096;2023-08-17T04:47:55;16.30;;;14.80;;
8663;SDS011;4369;47.842;13.096;2023-08-17T04:50:21;16.67;;;15.07;;
8663;SDS011;4369;47.842;13.096;2023-08-17T04:52:48;18.03;;;15.40;;
8663;SDS011;4369;47.842;13.096;2023-08-17T04:55:15;16.40;;;14.60;;
8663;SDS011;4369;47.842;13.096;2023-08-17T04:57:42;18.77;;;15.10;;
8663;SDS011;4369;47.842;13.096;2023-08-17T05:00:09;15.67;;;14.17;;
8663;SDS011;4369;47.842;13.096;2023-08-17T05:02:37;16.83;;;15.23;;
8663;SDS011;4369;47.842;13.096;2023-08-17T05:05:06;16.53;;;14.83;;
8663;SDS011;4369;47.842;13.096;2023-08-17T05:07:35;17.40;;;15.70;;
8663;SDS011;4369;47.842;13.096;2023-08-17T05:10:02;17.03;;;15.20;;
8663;SDS011;4369;47.842;13.096;2023-08-17T05:12:30;17.10;;;15.40;;
8663;SDS011;4369;47.842;13.096;2023-08-17T05:14:57;16.33;;;14.63;;
8663;SDS011;4369;47.842;13.096;2023-08-17T05:17:23;16.70;;;14.77;;
8663;SDS011;4369;47.842;13.096;2023-08-17T05:19:50;17.93;;;16.20;;
8663;SDS011;4369;47.842;13.096;2023-08-17T05:22:19;16.93;;;14.87;;
8663;SDS011;4369;47.842;13.096;2023-08-17T05:24:45;16.63;;;15.03;;
8663;SDS011;4369;47.842;13.096;2023-08-17T05:27:12;17.00;;;15.13;;
8663;SDS011;4369;47.842;13.096;2023-08-17T05:29:39;19.50;;;16.07;;
8663;SDS011;4369;47.842;13.096;2023-08-17T05:32:06;17.33;;;15.57;;
8663;SDS011;4369;47.842;13.096;2023-08-17T05:34:33;14.77;;;13.43;;
8663;SDS011;4369;47.842;13.096;2023-08-17T05:37:00;16.90;;;15.30;;
8663;SDS011;4369;47.842;13.096;2023-08-17T05:39:29;17.63;;;15.63;;
8663;SDS011;4369;47.842;13.096;2023-08-17T05:41:56;16.30;;;14.70;;
8663;SDS011;4369;47.842;13.096;2023-08-17T05:44:23;16.73;;;14.93;;
8663;SDS011;4369;47.842;13.096;2023-08-17T05:46:50;16.60;;;14.73;;
8663;SDS011;4369;47.842;13.096;2023-08-17T05:49:16;16.90;;;15.20;;
8663;SDS011;4369;47.842;13.096;2023-08-17T05:51:43;16.13;;;14.57;;
8663;SDS011;4369;47.842;13.096;2023-08-17T05:54:11;16.50;;;14.80;;
8663;SDS011;4369;47.842;13.096;2023-08-17T05:56:40;15.93;;;14.53;;
8663;SDS011;4369;47.842;13.096;2023-08-17T05:59:09;17.30;;;15.60;;
8663;SDS011;4369;47.842;13.096;2023-08-17T06:01:36;16.30;;;14.60;;
8663;SDS011;4369;47.842;13.096;2023-08-17T06:04:03;16.13;;;14.43;;
8663;SDS011;4369;47.842;13.096;2023-08-17T06:06:31;15.27;;;13.83;;
8663;SDS011;4369;47.842;13.096;2023-08-17T06:08:58;14.87;;;13.50;;
8663;SDS011;4369;47.842;13.096;2023-08-17T06:11:25;14.60;;;13.27;;
8663;SDS011;4369;47.842;13.096;2023-08-17T06:13:53;13.97;;;12.63;;
8663;SDS011;4369;47.842;13.096;2023-08-17T06:16:21;16.60;;;14.17;;
8663;SDS011;4369;47.842;13.096;2023-08-17T06:18:48;16.83;;;14.80;;
8663;SDS011;4369;47.842;13.096;2023-08-17T06:21:15;16.83;;;15.13;;
8663;SDS011;4369;47.842;13.096;2023-08-17T06:23:42;16.10;;;14.50;;
8663;SDS011;4369;47.842;13.096;2023-08-17T06:26:10;15.90;;;14.33;;
8663;SDS011;4369;47.842;13.096;2023-08-17T06:28:37;15.40;;;13.90;;
8663;SDS011;4369;47.842;13.096;2023-08-17T06:31:05;15.03;;;13.63;;
8663;SDS011;4369;47.842;13.096;2023-08-17T06:33:32;14.27;;;12.97;;
8663;SDS011;4369;47.842;13.096;2023-08-17T06:35:59;15.17;;;13.77;;
8663;SDS011;4369;47.842;13.096;2023-08-17T06:38:26;15.73;;;14.13;;
8663;SDS011;4369;47.842;13.096;2023-08-17T06:40:53;15.70;;;14.10;;
8663;SDS011;4369;47.842;13.096;2023-08-17T06:43:20;15.67;;;14.07;;
8663;SDS011;4369;47.842;13.096;2023-08-17T06:45:47;15.63;;;14.10;;
8663;SDS011;4369;47.842;13.096;2023-08-17T06:48:15;15.53;;;13.87;;
8663;SDS011;4369;47.842;13.096;2023-08-17T06:50:42;15.33;;;13.73;;
8663;SDS011;4369;47.842;13.096;2023-08-17T06:53:09;14.73;;;13.30;;
8663;SDS011;4369;47.842;13.096;2023-08-17T06:55:36;14.77;;;13.03;;
8663;SDS011;4369;47.842;13.096;2023-08-17T06:58:03;14.17;;;12.77;;
8663;SDS011;4369;47.842;13.096;2023-08-17T07:00:30;13.97;;;12.57;;
8663;SDS011;4369;47.842;13.096;2023-08-17T07:02:57;14.00;;;12.77;;
8663;SDS011;4369;47.842;13.096;2023-08-17T07:05:25;15.33;;;13.50;;
8663;SDS011;4369;47.842;13.096;2023-08-17T07:07:52;15.00;;;13.60;;
8663;SDS011;4369;47.842;13.096;2023-08-17T07:10:20;14.30;;;12.80;;
8663;SDS011;4369;47.842;13.096;2023-08-17T07:12:47;14.10;;;12.83;;
8663;SDS011;4369;47.842;13.096;2023-08-17T07:15:14;14.87;;;13.37;;
8663;SDS011;4369;47.842;13.096;2023-08-17T07:17:41;14.93;;;13.03;;
8663;SDS011;4369;47.842;13.096;2023-08-17T07:20:08;14.23;;;12.93;;
8663;SDS011;4369;47.842;13.096;2023-08-17T07:22:37;15.40;;;13.10;;
8663;SDS011;4369;47.842;13.096;2023-08-17T07:25:04;13.70;;;12.43;;
8663;SDS011;4369;47.842;13.096;2023-08-17T07:27:33;14.33;;;12.83;;
8663;SDS011;4369;47.842;13.096;2023-08-17T07:30:00;14.33;;;12.97;;
8663;SDS011;4369;47.842;13.096;2023-08-17T07:32:27;15.03;;;13.63;;
8663;SDS011;4369;47.842;13.096;2023-08-17T07:34:54;14.37;;;13.03;;
8663;SDS011;4369;47.842;13.096;2023-08-17T07:37:21;13.27;;;12.10;;
8663;SDS011;4369;47.842;13.096;2023-08-17T07:39:49;13.60;;;12.30;;
8663;SDS011;4369;47.842;13.096;2023-08-17T07:42:16;13.40;;;12.10;;
8663;SDS011;4369;47.842;13.096;2023-08-17T07:44:43;13.83;;;12.53;;
8663;SDS011;4369;47.842;13.096;2023-08-17T07:47:10;13.10;;;12.00;;
8663;SDS011;4369;47.842;13.096;2023-08-17T07:49:37;12.93;;;11.83;;
8663;SDS011;4369;47.842;13.096;2023-08-17T07:52:04;13.00;;;11.87;;
8663;SDS011;4369;47.842;13.096;2023-08-17T07:54:31;13.27;;;11.97;;
8663;SDS011;4369;47.842;13.096;2023-08-17T07:57:00;13.37;;;12.17;;
8663;SDS011;4369;47.842;13.096;2023-08-17T07:59:28;13.40;;;12.20;;
8663;SDS011;4369;47.842;13.096;2023-08-17T08:01:55;12.83;;;11.77;;
8663;SDS011;4369;47.842;13.096;2023-08-17T08:04:22;12.87;;;11.67;;
8663;SDS011;4369;47.842;13.096;2023-08-17T08:06:48;13.07;;;11.77;;
8663;SDS011;4369;47.842;13.096;2023-08-17T08:09:15;13.57;;;12.17;;
8663;SDS011;4369;47.842;13.096;2023-08-17T08:11:42;12.97;;;11.77;;
8663;SDS011;4369;47.842;13.096;2023-08-17T08:14:10;13.03;;;11.80;;
8663;SDS011;4369;47.842;13.096;2023-08-17T08:16:37;13.23;;;12.03;;
8663;SDS011;4369;47.842;13.096;2023-08-17T08:19:04;13.00;;;11.70;;
8663;SDS011;4369;47.842;13.096;2023-08-17T08:21:31;13.33;;;11.97;;
8663;SDS011;4369;47.842;13.096;2023-08-17T08:23:58;13.93;;;11.97;;
8663;SDS011;4369;47.842;13.096;2023-08-17T08:26:25;13.53;;;12.30;;
8663;SDS011;4369;47.842;13.096;2023-08-17T08:28:52;12.87;;;11.50;;
8663;SDS011;4369;47.842;13.096;2023-08-17T08:31:20;13.13;;;11.93;;
8663;SDS011;4369;47.842;13.096;2023-08-17T08:33:47;13.00;;;11.77;;
8663;SDS011;4369;47.842;13.096;2023-08-17T08:36:14;15.47;;;12.23;;
8663;SDS011;4369;47.842;13.096;2023-08-17T08:38:40;12.60;;;11.40;;
8663;SDS011;4369;47.842;13.096;2023-08-17T08:41:07;12.40;;;11.37;;
8663;SDS011;4369;47.842;13.096;2023-08-17T08:43:35;12.57;;;11.43;;
8663;SDS011;4369;47.842;13.096;2023-08-17T08:46:03;12.47;;;11.37;;
8663;SDS011;4369;47.842;13.096;2023-08-17T08:48:32;12.23;;;11.10;;
8663;SDS011;4369;47.842;13.096;2023-08-17T08:50:59;12.30;;;11.30;;
8663;SDS011;4369;47.842;13.096;2023-08-17T08:53:28;12.80;;;11.60;;
8663;SDS011;4369;47.842;13.096;2023-08-17T08:55:59;12.47;;;11.33;;
8663;SDS011;4369;47.842;13.096;2023-08-17T08:58:26;12.73;;;11.67;;
8663;SDS011;4369;47.842;13.096;2023-08-17T09:00:55;13.27;;;12.17;;
8663;SDS011;4369;47.842;13.096;2023-08-17T09:03:24;12.67;;;11.57;;
8663;SDS011;4369;47.842;13.096;2023-08-17T09:05:53;13.27;;;12.00;;
8663;SDS011;4369;47.842;13.096;2023-08-17T09:08:25;13.27;;;12.17;;
8663;SDS011;4369;47.842;13.096;2023-08-17T09:10:54;12.97;;;11.87;;
8663;SDS011;4369;47.842;13.096;2023-08-17T09:13:21;12.47;;;11.27;;
8663;SDS011;4369;47.842;13.096;2023-08-17T09:15:48;12.87;;;11.67;;
8663;SDS011;4369;47.842;13.096;2023-08-17T09:18:15;12.10;;;11.10;;
8663;SDS011;4369;47.842;13.096;2023-08-17T09:20:43;11.60;;;10.70;;
8663;SDS011;4369;47.842;13.096;2023-08-17T09:23:12;15.43;;;11.20;;
8663;SDS011;4369;47.842;13.096;2023-08-17T09:25:40;12.10;;;11.10;;
8663;SDS011;4369;47.842;13.096;2023-08-17T09:28:08;11.87;;;10.87;;
8663;SDS011;4369;47.842;13.096;2023-08-17T09:30:49;12.83;;;11.73;;
8663;SDS011;4369;47.842;13.096;2023-08-17T09:33:17;11.97;;;10.97;;
8663;SDS011;4369;47.842;13.096;2023-08-17T09:35:44;12.27;;;11.27;;
8663;SDS011;4369;47.842;13.096;2023-08-17T09:38:13;12.40;;;11.30;;
8663;SDS011;4369;47.842;13.096;2023-08-17T09:40:40;11.90;;;10.90;;
8663;SDS011;4369;47.842;13.096;2023-08-17T09:43:06;11.83;;;10.93;;
8663;SDS011;4369;47.842;13.096;2023-08-17T09:45:35;11.43;;;10.43;;
8663;SDS011;4369;47.842;13.096;2023-08-17T09:48:03;11.85;;;10.95;;
8663;SDS011;4369;47.842;13.096;2023-08-17T09:50:30;12.73;;;11.63;;
8663;SDS011;4369;47.842;13.096;2023-08-17T09:52:58;12.07;;;11.03;;
8663;SDS011;4369;47.842;13.096;2023-08-17T09:55:26;13.35;;;11.52;;
8663;SDS011;4369;47.842;13.096;2023-08-17T09:57:53;13.63;;;12.32;;
8663;SDS011;4369;47.842;13.096;2023-08-17T10:00:21;12.18;;;11.07;;
8663;SDS011;4369;47.842;13.096;2023-08-17T10:02:49;12.77;;;11.68;;
8663;SDS011;4369;47.842;13.096;2023-08-17T10:05:18;12.77;;;11.77;;
8663;SDS011;4369;47.842;13.096;2023-08-17T10:07:47;13.07;;;11.90;;
8663;SDS011;4369;47.842;13.096;2023-08-17T10:10:19;13.90;;;12.50;;
8663;SDS011;4369;47.842;13.096;2023-08-17T10:12:53;13.68;;;12.38;;
8663;SDS011;4369;47.842;13.096;2023-08-17T10:15:24;13.25;;;12.00;;
8663;SDS011;4369;47.842;13.096;2023-08-17T10:17:58;12.38;;;11.43;;
8663;SDS011;4369;47.842;13.096;2023-08-17T10:20:32;13.18;;;12.07;;
8663;SDS011;4369;47.842;13.096;2023-08-17T10:23:04;13.48;;;12.38;;
8663;SDS011;4369;47.842;13.096;2023-08-17T10:25:35;13.15;;;11.95;;
8663;SDS011;4369;47.842;13.096;2023-08-17T10:28:05;12.23;;;11.23;;
8663;SDS011;4369;47.842;13.096;2023-08-17T10:30:33;12.07;;;11.05;;
8663;SDS011;4369;47.842;13.096;2023-08-17T10:33:01;12.85;;;11.85;;
8663;SDS011;4369;47.842;13.096;2023-08-17T10:35:29;12.75;;;11.70;;
8663;SDS011;4369;47.842;13.096;2023-08-17T10:37:57;11.68;;;10.77;;
8663;SDS011;4369;47.842;13.096;2023-08-17T10:40:25;11.65;;;10.68;;
8663;SDS011;4369;47.842;13.096;2023-08-17T10:42:53;12.85;;;11.50;;
8663;SDS011;4369;47.842;13.096;2023-08-17T10:45:29;12.00;;;10.80;;
8663;SDS011;4369;47.842;13.096;2023-08-17T10:48:00;11.63;;;10.75;;
8663;SDS011;4369;47.842;13.096;2023-08-17T10:51:01;10.77;;;9.98;;
8663;SDS011;4369;47.842;13.096;2023-08-17T10:53:33;11.70;;;10.80;;
8663;SDS011;4369;47.842;13.096;2023-08-17T10:56:04;11.88;;;10.80;;
8663;SDS011;4369;47.842;13.096;2023-08-17T10:58:34;11.55;;;10.35;;
8663;SDS011;4369;47.842;13.096;2023-08-17T11:01:02;12.77;;;11.77;;
8663;SDS011;4369;47.842;13.096;2023-08-17T11:03:30;11.18;;;10.18;;
8663;SDS011;4369;47.842;13.096;2023-08-17T11:05:58;11.82;;;10.88;;
8663;SDS011;4369;47.842;13.096;2023-08-17T11:08:50;11.00;;;9.90;;
8663;SDS011;4369;47.842;13.096;2023-08-17T11:11:19;10.60;;;9.68;;
8663;SDS011;4369;47.842;13.096;2023-08-17T11:13:47;10.95;;;9.85;;
8663;SDS011;4369;47.842;13.096;2023-08-17T11:16:16;11.30;;;10.20;;
8663;SDS011;4369;47.842;13.096;2023-08-17T11:18:44;10.60;;;9.80;;
8663;SDS011;4369;47.842;13.096;2023-08-17T11:21:11;11.35;;;10.38;;
8663;SDS011;4369;47.842;13.096;2023-08-17T11:23:39;10.13;;;9.23;;
8663;SDS011;4369;47.842;13.096;2023-08-17T11:26:07;10.63;;;9.55;;
8663;SDS011;4369;47.842;13.096;2023-08-17T11:28:34;11.15;;;10.07;;
8663;SDS011;4369;47.842;13.096;2023-08-17T11:31:03;10.77;;;9.98;;
8663;SDS011;4369;47.842;13.096;2023-08-17T11:33:33;10.63;;;9.82;;
8663;SDS011;4369;47.842;13.096;2023-08-17T11:36:01;11.43;;;10.38;;
8663;SDS011;4369;47.842;13.096;2023-08-17T11:38:30;11.13;;;10.13;;
8663;SDS011;4369;47.842;13.096;2023-08-17T11:40:58;11.05;;;10.25;;
8663;SDS011;4369;47.842;13.096;2023-08-17T11:43:25;11.57;;;10.57;;
8663;SDS011;4369;47.842;13.096;2023-08-17T11:45:54;11.40;;;10.40;;
8663;SDS011;4369;47.842;13.096;2023-08-17T11:48:21;11.20;;;10.23;;
8663;SDS011;4369;47.842;13.096;2023-08-17T11:50:50;11.48;;;10.48;;
8663;SDS011;4369;47.842;13.096;2023-08-17T11:53:17;10.93;;;10.02;;
8663;SDS011;4369;47.842;13.096;2023-08-17T11:55:44;10.98;;;10.18;;
8663;SDS011;4369;47.842;13.096;2023-08-17T11:58:11;11.25;;;10.40;;
8663;SDS011;4369;47.842;13.096;2023-08-17T12:00:39;11.07;;;10.18;;
8663;SDS011;4369;47.842;13.096;2023-08-17T12:03:07;11.30;;;10.40;;
8663;SDS011;4369;47.842;13.096;2023-08-17T12:05:34;11.07;;;10.07;;
8663;SDS011;4369;47.842;13.096;2023-08-17T12:08:03;12.13;;;11.02;;
8663;SDS011;4369;47.842;13.096;2023-08-17T12:10:30;10.70;;;9.73;;
8663;SDS011;4369;47.842;13.096;2023-08-17T12:12:58;11.10;;;9.98;;
8663;SDS011;4369;47.842;13.096;2023-08-17T12:15:29;11.15;;;10.35;;
8663;SDS011;4369;47.842;13.096;2023-08-17T12:17:58;11.27;;;10.38;;
8663;SDS011;4369;47.842;13.096;2023-08-17T12:20:26;10.55;;;9.75;;
8663;SDS011;4369;47.842;13.096;2023-08-17T12:22:53;10.02;;;9.30;;
8663;SDS011;4369;47.842;13.096;2023-08-17T12:25:21;10.63;;;9.82;;
8663;SDS011;4369;47.842;13.096;2023-08-17T12:27:49;10.23;;;9.32;;
8663;SDS011;4369;47.842;13.096;2023-08-17T12:30:26;9.95;;;9.05;;
8663;SDS011;4369;47.842;13.096;2023-08-17T12:32:53;10.25;;;9.35;;
8663;SDS011;4369;47.842;13.096;2023-08-17T12:35:20;9.98;;;9.07;;
8663;SDS011;4369;47.842;13.096;2023-08-17T12:37:49;10.23;;;9.52;;
8663;SDS011;4369;47.842;13.096;2023-08-17T12:40:16;10.77;;;9.98;;
8663;SDS011;4369;47.842;13.096;2023-08-17T12:42:45;10.60;;;9.70;;
8663;SDS011;4369;47.842;13.096;2023-08-17T12:45:12;10.55;;;9.75;;
8663;SDS011;4369;47.842;13.096;2023-08-17T12:47:39;9.80;;;9.10;;
8663;SDS011;4369;47.842;13.096;2023-08-17T12:50:06;10.23;;;9.43;;
8663;SDS011;4369;47.842;13.096;2023-08-17T12:52:33;9.68;;;8.80;;
8663;SDS011;4369;47.842;13.096;2023-08-17T12:55:00;9.50;;;8.63;;
8663;SDS011;4369;47.842;13.096;2023-08-17T12:57:27;9.50;;;8.80;;
8663;SDS011;4369;47.842;13.096;2023-08-17T12:59:55;9.40;;;8.75;;
8663;SDS011;4369;47.842;13.096;2023-08-17T13:02:23;9.10;;;8.40;;
8663;SDS011;4369;47.842;13.096;2023-08-17T13:04:50;9.65;;;8.80;;
8663;SDS011;4369;47.842;13.096;2023-08-17T13:07:15;9.23;;;8.57;;
8663;SDS011;4369;47.842;13.096;2023-08-17T13:09:42;8.18;;;7.55;;
8663;SDS011;4369;47.842;13.096;2023-08-17T13:12:11;7.75;;;7.20;;
8663;SDS011;4369;47.842;13.096;2023-08-17T13:14:38;8.15;;;7.53;;
8663;SDS011;4369;47.842;13.096;2023-08-17T13:17:06;7.85;;;7.10;;
8663;SDS011;4369;47.842;13.096;2023-08-17T13:19:33;8.07;;;7.50;;
8663;SDS011;4369;47.842;13.096;2023-08-17T13:22:00;6.93;;;6.50;;
8663;SDS011;4369;47.842;13.096;2023-08-17T13:24:28;9.35;;;7.05;;
8663;SDS011;4369;47.842;13.096;2023-08-17T13:26:55;7.22;;;6.82;;
8663;SDS011;4369;47.842;13.096;2023-08-17T13:29:22;7.30;;;6.80;;
8663;SDS011;4369;47.842;13.096;2023-08-17T13:31:49;7.15;;;6.65;;
8663;SDS011;4369;47.842;13.096;2023-08-17T13:34:17;6.72;;;6.18;;
8663;SDS011;4369;47.842;13.096;2023-08-17T13:36:44;6.13;;;5.72;;
8663;SDS011;4369;47.842;13.096;2023-08-17T13:39:11;6.25;;;5.70;;
8663;SDS011;4369;47.842;13.096;2023-08-17T13:41:38;6.78;;;6.25;;
8663;SDS011;4369;47.842;13.096;2023-08-17T13:44:05;6.50;;;6.03;;
8663;SDS011;4369;47.842;13.096;2023-08-17T13:46:32;6.30;;;5.78;;
8663;SDS011;4369;47.842;13.096;2023-08-17T13:48:59;6.30;;;5.80;;
8663;SDS011;4369;47.842;13.096;2023-08-17T13:51:27;5.80;;;5.40;;
8663;SDS011;4369;47.842;13.096;2023-08-17T13:53:54;6.40;;;6.00;;
8663;SDS011;4369;47.842;13.096;2023-08-17T13:56:21;6.10;;;5.70;;
8663;SDS011;4369;47.842;13.096;2023-08-17T13:58:48;6.00;;;5.60;;
8663;SDS011;4369;47.842;13.096;2023-08-17T14:01:15;6.10;;;5.63;;
8663;SDS011;4369;47.842;13.096;2023-08-17T14:03:42;5.82;;;5.45;;
8663;SDS011;4369;47.842;13.096;2023-08-17T14:06:09;6.07;;;5.68;;
8663;SDS011;4369;47.842;13.096;2023-08-17T14:08:37;5.43;;;5.13;;
8663;SDS011;4369;47.842;13.096;2023-08-17T14:11:04;5.80;;;5.30;;
8663;SDS011;4369;47.842;13.096;2023-08-17T14:13:31;5.82;;;5.53;;
8663;SDS011;4369;47.842;13.096;2023-08-17T14:15:59;5.85;;;5.50;;
8663;SDS011;4369;47.842;13.096;2023-08-17T14:18:26;5.40;;;5.10;;
8663;SDS011;4369;47.842;13.096;2023-08-17T14:20:53;5.70;;;5.40;;
8663;SDS011;4369;47.842;13.096;2023-08-17T14:23:20;6.05;;;5.65;;
8663;SDS011;4369;47.842;13.096;2023-08-17T14:25:48;6.00;;;5.60;;
8663;SDS011;4369;47.842;13.096;2023-08-17T14:28:17;5.88;;;5.45;;
8663;SDS011;4369;47.842;13.096;2023-08-17T14:30:43;6.03;;;5.65;;
8663;SDS011;4369;47.842;13.096;2023-08-17T14:33:10;6.18;;;5.68;;
8663;SDS011;4369;47.842;13.096;2023-08-17T14:35:38;5.70;;;5.30;;
8663;SDS011;4369;47.842;13.096;2023-08-17T14:38:04;6.32;;;5.38;;
8663;SDS011;4369;47.842;13.096;2023-08-17T14:40:34;6.18;;;5.78;;
8663;SDS011;4369;47.842;13.096;2023-08-17T14:43:02;6.22;;;5.72;;